Time,TemperatureF,DewpointF,PressureIn,WindDirection,WindDirectionDegrees,WindSpeedMPH,WindSpeedGustMPH,Humidity,HourlyPrecipIn,Conditions,Clouds,dailyrainin,SoftwareType,DateUTC
2013-09-28 09:53:00,-999.0,-99.9,0.00,North,-999,-999.0,-999.0,-999,0.00,,,0.00,weatherlink.com 1.10,2013-09-28 13:53:00,
2013-09-28 10:08:00,-999.0,-99.9,30.23,North,-999,-999.0,-999.0,-999,0.00,,,0.00,weatherlink.com 1.10,2013-09-28 14:08:00,
2013-09-28 10:23:00,62.9,56.0,30.23,SE,137,1.0,6.0,77,0.00,,,0.00,weatherlink.com 1.10,2013-09-28 14:23:00,
2013-09-28 10:38:00,63.5,57.0,30.23,ESE,111,2.0,3.0,78,0.00,,,0.00,weatherlink.com 1.10,2013-09-28 14:38:00,
2013-09-28 10:53:00,64.0,56.0,30.23,East,86,1.0,6.0,76,0.00,,,0.00,weatherlink.com 1.10,2013-09-28 14:53:00,
2013-09-28 11:08:00,64.5,56.0,30.23,East,80,1.0,5.0,75,0.00,,,0.00,weatherlink.com 1.10,2013-09-28 15:08:00,
2013-09-28 11:23:00,65.1,56.0,30.23,ENE,66,1.0,6.0,73,0.00,,,0.00,weatherlink.com 1.10,2013-09-28 15:23:00,
2013-09-28 11:38:00,65.5,55.0,30.23,East,101,0.0,7.0,69,0.00,,,0.00,weatherlink.com 1.10,2013-09-28 15:38:00,
2013-09-28 11:53:00,66.1,56.0,30.23,SE,141,0.0,5.0,69,0.00,,,0.00,weatherlink.com 1.10,2013-09-28 15:53:00,
2013-09-28 12:08:00,67.1,55.0,30.22,East,79,1.0,9.0,66,0.00,,,0.00,weatherlink.com 1.10,2013-09-28 16:08:00,
2013-09-28 12:23:00,68.4,57.0,30.22,East,90,0.0,5.0,66,0.00,,,0.00,weatherlink.com 1.10,2013-09-28 16:23:00,
2013-09-28 12:38:00,69.8,56.0,30.22,ESE,111,1.0,8.0,61,0.00,,,0.00,weatherlink.com 1.10,2013-09-28 16:38:00,
2013-09-28 12:53:00,70.5,56.0,30.21,East,92,2.0,6.0,61,0.00,,,0.00,weatherlink.com 1.10,2013-09-28 16:53:00,
2013-09-28 13:08:00,71.3,57.0,30.20,East,83,2.0,5.0,61,0.00,,,0.00,weatherlink.com 1.10,2013-09-28 17:08:00,
2013-09-28 13:23:00,71.2,56.0,30.20,ESE,105,3.0,6.0,58,0.00,,,0.00,weatherlink.com 1.10,2013-09-28 17:23:00,
2013-09-28 13:39:00,72.1,56.0,30.19,ESE,121,2.0,4.0,58,0.00,,,0.00,weatherlink.com 1.10,2013-09-28 17:39:00,
2013-09-28 13:54:00,72.2,56.0,30.18,ENE,74,2.0,6.0,58,0.00,,,0.00,weatherlink.com 1.10,2013-09-28 17:54:00,
2013-09-28 14:09:00,72.8,57.0,30.18,NE,36,3.0,5.0,58,0.00,,,0.00,weatherlink.com 1.10,2013-09-28 18:09:00,
2013-09-28 14:24:00,72.2,56.0,30.17,ENE,77,2.0,6.0,57,0.00,,,0.00,weatherlink.com 1.10,2013-09-28 18:24:00,
2013-09-28 14:39:00,72.6,57.0,30.16,SE,126,1.0,4.0,59,0.00,,,0.00,weatherlink.com 1.10,2013-09-28 18:39:00,
2013-09-28 14:54:00,72.8,57.0,30.16,ESE,118,0.0,5.0,58,0.00,,,0.00,weatherlink.com 1.10,2013-09-28 18:54:00,
2013-09-28 15:09:00,72.4,57.0,30.16,ENE,71,2.0,6.0,59,0.00,,,0.00,weatherlink.com 1.10,2013-09-28 19:09:00,
2013-09-28 15:24:00,72.9,56.0,30.16,NNE,22,2.0,3.0,56,0.00,,,0.00,weatherlink.com 1.10,2013-09-28 19:24:00,
2013-09-28 15:39:00,73.4,57.0,30.15,East,99,0.0,3.0,56,0.00,,,0.00,weatherlink.com 1.10,2013-09-28 19:39:00,
2013-09-28 15:54:00,74.1,58.0,30.15,ENE,78,3.0,6.0,57,0.00,,,0.00,weatherlink.com 1.10,2013-09-28 19:54:00,
2013-09-28 16:09:00,73.7,56.0,30.14,ENE,69,0.0,3.0,55,0.00,,,0.00,weatherlink.com 1.10,2013-09-28 20:09:00,
2013-09-28 16:24:00,73.1,57.0,30.14,East,101,0.0,3.0,57,0.00,,,0.00,weatherlink.com 1.10,2013-09-28 20:24:00,
2013-09-28 16:39:00,72.5,56.0,30.14,East,90,1.0,3.0,57,0.00,,,0.00,weatherlink.com 1.10,2013-09-28 20:39:00,
2013-09-28 16:54:00,72.6,57.0,30.14,East,85,0.0,4.0,58,0.00,,,0.00,weatherlink.com 1.10,2013-09-28 20:54:00,
2013-09-28 17:09:00,72.6,56.0,30.14,East,81,1.0,5.0,56,0.00,,,0.00,weatherlink.com 1.10,2013-09-28 21:09:00,
2013-09-28 17:24:00,72.1,56.0,30.15,East,98,0.0,7.0,58,0.00,,,0.00,weatherlink.com 1.10,2013-09-28 21:24:00,
2013-09-28 17:39:00,71.6,56.0,30.15,ENE,67,0.0,4.0,59,0.00,,,0.00,weatherlink.com 1.10,2013-09-28 21:39:00,
2013-09-28 17:54:00,70.3,55.0,30.15,NW,318,1.0,6.0,58,0.00,,,0.00,weatherlink.com 1.10,2013-09-28 21:54:00,
2013-09-28 18:09:00,69.2,55.0,30.15,ESE,115,0.0,6.0,62,0.00,,,0.00,weatherlink.com 1.10,2013-09-28 22:09:00,
2013-09-28 18:24:00,68.5,56.0,30.16,ENE,63,0.0,2.0,65,0.00,,,0.00,weatherlink.com 1.10,2013-09-28 22:24:00,
2013-09-28 18:39:00,67.6,55.0,30.15,NE,51,0.0,3.0,65,0.00,,,0.00,weatherlink.com 1.10,2013-09-28 22:39:00,
2013-09-28 18:54:00,66.7,55.0,30.15,North,11,0.0,0.0,67,0.00,,,0.00,weatherlink.com 1.10,2013-09-28 22:54:00,
2013-09-28 19:09:00,65.5,55.0,30.15,North,11,0.0,0.0,70,0.00,,,0.00,weatherlink.com 1.10,2013-09-28 23:09:00,
2013-09-28 19:24:00,64.0,55.0,30.16,North,11,0.0,0.0,73,0.00,,,0.00,weatherlink.com 1.10,2013-09-28 23:24:00,
2013-09-28 19:39:00,62.3,55.0,30.16,North,11,0.0,0.0,77,0.00,,,0.00,weatherlink.com 1.10,2013-09-28 23:39:00,
2013-09-28 19:54:00,60.7,55.0,30.16,North,11,0.0,0.0,80,0.00,,,0.00,weatherlink.com 1.10,2013-09-28 23:54:00,
2013-09-28 20:09:00,59.6,54.0,30.16,North,11,0.0,0.0,83,0.00,,,0.00,weatherlink.com 1.10,2013-09-29 00:09:00,
2013-09-28 20:24:00,58.6,54.0,30.16,North,11,0.0,0.0,85,0.00,,,0.00,weatherlink.com 1.10,2013-09-29 00:24:00,
2013-09-28 20:39:00,58.1,54.0,30.16,North,11,0.0,0.0,87,0.00,,,0.00,weatherlink.com 1.10,2013-09-29 00:39:00,
2013-09-28 20:54:00,57.5,54.0,30.16,North,11,0.0,0.0,87,0.00,,,0.00,weatherlink.com 1.10,2013-09-29 00:54:00,
2013-09-28 21:09:00,56.9,53.0,30.16,North,11,0.0,0.0,88,0.00,,,0.00,weatherlink.com 1.10,2013-09-29 01:09:00,
2013-09-28 21:24:00,56.4,53.0,30.16,North,11,0.0,0.0,89,0.00,,,0.00,weatherlink.com 1.10,2013-09-29 01:24:00,
2013-09-28 21:39:00,55.8,53.0,30.16,North,11,0.0,0.0,90,0.00,,,0.00,weatherlink.com 1.10,2013-09-29 01:39:00,
2013-09-28 21:54:00,55.1,53.0,30.16,North,11,0.0,0.0,91,0.00,,,0.00,weatherlink.com 1.10,2013-09-29 01:54:00,
2013-09-28 22:09:00,54.6,52.0,30.16,North,11,0.0,0.0,92,0.00,,,0.00,weatherlink.com 1.10,2013-09-29 02:09:00,
2013-09-28 22:24:00,54.3,52.0,30.16,North,11,0.0,0.0,93,0.00,,,0.00,weatherlink.com 1.10,2013-09-29 02:24:00,
2013-09-28 22:39:00,54.1,53.0,30.16,North,11,0.0,0.0,94,0.00,,,0.00,weatherlink.com 1.10,2013-09-29 02:39:00,
2013-09-28 22:54:00,53.8,52.0,30.16,North,11,0.0,0.0,93,0.00,,,0.00,weatherlink.com 1.10,2013-09-29 02:54:00,
2013-09-28 23:09:00,53.8,52.0,30.16,North,11,0.0,0.0,94,0.00,,,0.00,weatherlink.com 1.10,2013-09-29 03:09:00,
2013-09-28 23:24:00,53.7,52.0,30.16,North,11,0.0,0.0,94,0.00,,,0.00,weatherlink.com 1.10,2013-09-29 03:24:00,
2013-09-28 23:39:00,53.6,52.0,30.16,North,11,0.0,0.0,94,0.00,,,0.00,weatherlink.com 1.10,2013-09-29 03:39:00,
2013-09-28 23:54:00,53.8,52.0,30.16,North,11,0.0,0.0,94,0.00,,,0.00,weatherlink.com 1.10,2013-09-29 03:54:00,